Time;durP1;ratioP1;P1;durP2;ratioP2;P2;SDS_P1;SDS_P2;PMS_P1;PMS_P2;Temp;Humidity;BMP_temperature;BMP_pressure;BME280_temperature;BME280_humidity;BME280_pressure;Samples;Min_cycle;Max_cycle;Signal;HPM_P1;HPM_P2
2023/09/10 03:32:38;;;;;;;5.93;5.37;;;17.20;99.90;;;;;;5127656;22;20565;-94
2023/09/10 03:35:06;;;;;;;5.70;4.40;;;17.20;99.90;;;;;;5038202;28;20489;-95
2023/09/10 03:37:32;;;;;;;5.17;4.67;;;17.20;99.90;;;;;;5032369;28;20452;-95
2023/09/10 03:39:59;;;;;;;5.60;5.10;;;17.20;99.90;;;;;;5035587;28;20473;-95
2023/09/10 03:42:27;;;;;;;5.63;4.73;;;17.10;99.90;;;;;;5029792;28;20479;-95
2023/09/10 03:44:54;;;;;;;6.20;5.60;;;17.10;99.90;;;;;;5038156;28;20484;-95
2023/09/10 03:49:50;;;;;;;5.50;5.00;;;17.10;99.90;;;;;;5004556;28;20480;-67
2023/09/10 03:52:17;;;;;;;4.73;4.23;;;17.10;99.90;;;;;;5005398;28;20459;-66
2023/09/10 03:54:44;;;;;;;6.03;4.77;;;17.10;99.90;;;;;;5005683;28;20478;-67
2023/09/10 03:57:11;;;;;;;5.70;5.20;;;17.10;99.90;;;;;;5011142;28;20983;-67
2023/09/10 03:59:37;;;;;;;5.70;4.80;;;17.10;99.90;;;;;;5005964;28;20464;-66
2023/09/10 04:02:04;;;;;;;6.63;4.87;;;17.00;99.90;;;;;;5003606;28;21007;-66
2023/09/10 04:04:31;;;;;;;6.73;5.37;;;17.00;99.90;;;;;;5007625;28;20499;-67
2023/09/10 04:06:59;;;;;;;5.53;5.00;;;17.00;99.90;;;;;;5005693;28;20488;-66
2023/09/10 04:09:26;;;;;;;5.77;5.10;;;17.00;99.90;;;;;;5011300;28;20472;-67
2023/09/10 04:11:54;;;;;;;8.67;5.70;;;17.00;99.90;;;;;;5005405;28;20845;-67
2023/09/10 04:14:21;;;;;;;6.40;5.40;;;16.90;99.90;;;;;;5010441;28;20491;-67
2023/09/10 04:16:47;;;;;;;5.13;4.63;;;16.90;99.90;;;;;;5010922;28;20491;-66
2023/09/10 04:19:14;;;;;;;8.20;5.43;;;16.90;99.90;;;;;;5006022;28;20485;-66
2023/09/10 04:21:41;;;;;;;7.43;5.33;;;16.90;99.90;;;;;;5005416;28;20495;-66
2023/09/10 04:24:09;;;;;;;5.50;5.00;;;16.90;99.90;;;;;;5010664;28;20500;-66
2023/09/10 04:26:36;;;;;;;6.53;5.23;;;16.90;99.90;;;;;;5010961;28;20461;-66
2023/09/10 04:29:02;;;;;;;6.93;5.10;;;16.90;99.90;;;;;;5005006;28;20835;-66
2023/09/10 04:31:30;;;;;;;5.40;4.90;;;16.80;99.90;;;;;;5006743;28;20463;-66
2023/09/10 04:33:57;;;;;;;11.53;5.37;;;16.80;99.90;;;;;;5010448;28;20492;-66
2023/09/10 04:36:24;;;;;;;8.03;5.60;;;16.80;99.90;;;;;;5011052;28;20469;-66
2023/09/10 04:38:50;;;;;;;6.60;5.10;;;16.80;99.90;;;;;;5010738;28;20464;-66
2023/09/10 04:41:18;;;;;;;5.23;4.73;;;16.80;99.90;;;;;;5001233;28;20464;-66
2023/09/10 04:43:45;;;;;;;6.53;4.93;;;16.70;99.90;;;;;;5010145;28;20568;-66
2023/09/10 04:46:12;;;;;;;5.83;5.33;;;16.70;99.90;;;;;;5010620;28;20956;-66
2023/09/10 04:48:38;;;;;;;7.70;5.83;;;16.70;99.90;;;;;;5001600;28;20472;-66
2023/09/10 04:51:05;;;;;;;6.57;5.97;;;16.70;99.90;;;;;;5010499;28;20471;-66
2023/09/10 04:53:32;;;;;;;5.90;5.30;;;16.70;99.90;;;;;;5005646;28;20480;-66
2023/09/10 04:55:59;;;;;;;7.10;5.53;;;16.70;99.90;;;;;;4998137;28;20490;-66
2023/09/10 04:58:27;;;;;;;5.47;4.97;;;16.70;99.90;;;;;;5006430;28;20469;-66
2023/09/10 05:00:53;;;;;;;8.23;5.73;;;16.70;99.90;;;;;;5001581;28;20479;-66
2023/09/10 05:03:21;;;;;;;7.97;5.60;;;16.70;99.90;;;;;;5009895;28;20488;-66
2023/09/10 05:05:47;;;;;;;5.50;5.00;;;16.60;99.90;;;;;;5010566;28;20498;-66
2023/09/10 05:08:14;;;;;;;5.70;5.10;;;16.60;99.90;;;;;;5006149;28;20858;-66
2023/09/10 05:10:41;;;;;;;5.60;4.90;;;16.60;99.90;;;;;;5006231;28;20461;-66
2023/09/10 05:13:07;;;;;;;5.37;4.90;;;16.60;99.90;;;;;;5000194;28;20474;-66
2023/09/10 05:15:35;;;;;;;5.70;5.20;;;16.60;99.90;;;;;;5003184;28;20470;-66
2023/09/10 05:18:02;;;;;;;6.93;5.87;;;16.60;99.90;;;;;;5010139;28;20465;-66
2023/09/10 05:20:30;;;;;;;5.93;5.33;;;16.60;99.90;;;;;;5003077;28;20465;-66
2023/09/10 05:22:57;;;;;;;6.17;5.40;;;16.60;99.90;;;;;;5009429;28;20488;-66
2023/09/10 05:25:24;;;;;;;8.17;6.30;;;16.70;99.90;;;;;;5007571;28;21041;-66
2023/09/10 05:27:50;;;;;;;6.83;6.13;;;16.70;99.90;;;;;;5012919;28;20473;-66
2023/09/10 05:30:17;;;;;;;8.57;5.70;;;16.70;99.90;;;;;;5013977;28;20479;-66
2023/09/10 05:32:45;;;;;;;5.60;5.10;;;16.70;99.90;;;;;;5009300;28;20468;-66
2023/09/10 05:35:12;;;;;;;7.43;5.50;;;16.70;99.90;;;;;;5005603;28;20491;-66
2023/09/10 05:37:39;;;;;;;7.20;5.63;;;16.70;99.90;;;;;;5013808;28;20828;-66
2023/09/10 05:40:07;;;;;;;7.00;6.30;;;16.80;99.90;;;;;;5013508;28;20900;-66
2023/09/10 05:42:33;;;;;;;6.23;5.63;;;16.80;99.90;;;;;;5009963;28;20494;-66
2023/09/10 05:45:00;;;;;;;6.53;5.33;;;16.80;99.90;;;;;;5000371;28;20479;-66
2023/09/10 05:47:27;;;;;;;6.20;5.60;;;16.80;99.90;;;;;;5000396;28;20464;-66
2023/09/10 05:49:55;;;;;;;6.90;5.83;;;16.90;99.90;;;;;;5004192;28;20469;-67
2023/09/10 05:52:21;;;;;;;6.57;5.80;;;16.90;99.90;;;;;;5002854;28;21047;-66
2023/09/10 05:54:48;;;;;;;6.57;5.93;;;17.00;99.90;;;;;;5004451;28;20489;-66
2023/09/10 05:57:15;;;;;;;8.20;7.13;;;17.00;99.90;;;;;;5002674;28;20684;-66
2023/09/10 05:59:42;;;;;;;7.10;6.00;;;17.00;99.90;;;;;;5004821;28;20472;-66
2023/09/10 06:02:08;;;;;;;7.67;6.50;;;17.10;99.90;;;;;;4999498;28;21056;-65
2023/09/10 06:04:35;;;;;;;6.07;5.47;;;17.10;99.90;;;;;;5003463;28;20919;-66
2023/09/10 06:07:04;;;;;;;8.60;6.07;;;17.10;99.90;;;;;;5003507;28;20465;-65
2023/09/10 06:09:31;;;;;;;7.30;6.60;;;17.20;99.90;;;;;;5009721;28;20490;-66
2023/09/10 06:11:58;;;;;;;6.67;6.00;;;17.30;99.90;;;;;;5003061;28;20491;-66
2023/09/10 06:14:25;;;;;;;6.43;5.80;;;17.40;99.90;;;;;;5008853;28;20491;-67
2023/09/10 06:16:52;;;;;;;7.63;6.27;;;17.40;99.90;;;;;;5012464;28;20465;-66
2023/09/10 06:19:18;;;;;;;6.23;5.57;;;17.40;99.90;;;;;;5013067;28;20465;-66
2023/09/10 06:21:45;;;;;;;6.47;5.87;;;17.50;99.90;;;;;;5012471;28;20467;-66
2023/09/10 06:24:13;;;;;;;6.20;5.60;;;17.60;99.90;;;;;;5008235;28;20528;-65
2023/09/10 06:26:40;;;;;;;6.20;5.60;;;17.60;99.90;;;;;;5010482;28;20544;-65
2023/09/10 06:29:07;;;;;;;6.90;6.20;;;17.70;99.90;;;;;;5006023;28;20481;-65
2023/09/10 06:31:33;;;;;;;6.40;5.80;;;17.80;99.90;;;;;;5005716;28;20476;-65
2023/09/10 06:34:00;;;;;;;7.23;5.80;;;17.80;99.90;;;;;;5009261;28;20481;-65
2023/09/10 06:36:27;;;;;;;6.83;5.90;;;17.90;99.90;;;;;;5012737;28;20461;-65
2023/09/10 06:38:54;;;;;;;7.07;6.10;;;17.90;99.90;;;;;;5008494;28;20469;-66
2023/09/10 06:41:22;;;;;;;7.00;6.30;;;18.00;99.90;;;;;;5009008;28;20465;-65
2023/09/10 06:43:49;;;;;;;6.00;5.30;;;18.20;99.90;;;;;;5011929;28;20504;-65
2023/09/10 06:46:15;;;;;;;7.47;5.77;;;18.20;99.90;;;;;;5012402;28;20464;-65
2023/09/10 06:48:42;;;;;;;6.20;5.60;;;18.40;99.90;;;;;;5009165;28;20489;-66
2023/09/10 06:51:09;;;;;;;6.93;6.20;;;18.50;99.90;;;;;;5012342;28;20461;-66
2023/09/10 06:53:35;;;;;;;7.27;6.23;;;18.60;99.90;;;;;;5008652;28;20482;-65
2023/09/10 06:56:02;;;;;;;6.83;6.03;;;18.70;99.90;;;;;;5012278;28;20461;-65
2023/09/10 06:58:30;;;;;;;6.80;6.20;;;18.80;99.90;;;;;;5009798;28;20476;-66
2023/09/10 07:00:57;;;;;;;7.90;6.43;;;18.90;99.90;;;;;;5009010;28;20457;-66
2023/09/10 07:03:24;;;;;;;7.23;6.20;;;19.00;99.90;;;;;;5009675;28;20494;-65
2023/09/10 07:05:51;;;;;;;7.70;6.90;;;19.20;99.90;;;;;;5010168;28;20977;-66
2023/09/10 07:08:17;;;;;;;6.87;6.17;;;19.30;99.90;;;;;;5011341;28;20473;-66
2023/09/10 07:10:44;;;;;;;6.83;6.17;;;19.40;99.90;;;;;;5007239;28;20472;-65
2023/09/10 07:13:11;;;;;;;7.70;6.90;;;19.50;99.90;;;;;;5005681;28;20969;-65
2023/09/10 07:15:39;;;;;;;7.23;6.20;;;19.60;99.90;;;;;;5009342;28;20475;-66
2023/09/10 07:18:07;;;;;;;6.20;5.70;;;19.80;99.90;;;;;;5011846;28;20461;-66
2023/09/10 07:20:33;;;;;;;8.30;6.40;;;19.90;99.90;;;;;;5009089;28;20467;-66
2023/09/10 07:23:00;;;;;;;7.43;6.03;;;20.10;99.90;;;;;;5010995;28;20490;-67
2023/09/10 07:25:27;;;;;;;6.70;5.90;;;20.20;99.90;;;;;;5009184;28;20460;-66
2023/09/10 07:27:53;;;;;;;6.40;5.77;;;20.40;99.90;;;;;;5009112;28;20841;-66
2023/09/10 07:30:20;;;;;;;7.10;6.40;;;20.50;99.90;;;;;;5011397;28;20473;-65
2023/09/10 07:32:48;;;;;;;6.60;5.80;;;20.70;99.90;;;;;;5008482;28;20468;-66
2023/09/10 07:35:16;;;;;;;7.27;6.40;;;20.80;99.90;;;;;;5011506;28;20838;-66
2023/09/10 07:37:43;;;;;;;6.30;5.70;;;20.90;99.90;;;;;;5006598;28;20998;-66
2023/09/10 07:40:11;;;;;;;7.60;6.10;;;21.10;99.90;;;;;;5011456;28;21008;-66
2023/09/10 07:42:37;;;;;;;7.60;6.50;;;21.30;99.90;;;;;;5006011;28;20477;-67
2023/09/10 07:45:05;;;;;;;7.50;6.80;;;21.50;99.90;;;;;;5008885;28;20873;-65
2023/09/10 07:47:33;;;;;;;7.83;6.40;;;21.60;99.90;;;;;;5006639;28;20456;-65
2023/09/10 07:50:01;;;;;;;7.63;5.77;;;21.80;99.90;;;;;;5003541;28;20493;-66
2023/09/10 07:52:28;;;;;;;7.43;6.43;;;22.00;99.90;;;;;;5009983;28;20815;-67
2023/09/10 07:54:55;;;;;;;7.00;6.40;;;22.20;99.90;;;;;;5011028;28;20230;-66
2023/09/10 07:57:22;;;;;;;7.37;5.90;;;22.30;99.90;;;;;;5011177;28;20950;-66
2023/09/10 07:59:48;;;;;;;8.50;6.43;;;22.40;99.90;;;;;;5011348;28;20813;-67
2023/09/10 08:02:15;;;;;;;6.00;5.40;;;22.60;99.90;;;;;;5006657;28;20488;-66
2023/09/10 08:04:43;;;;;;;6.83;5.97;;;22.70;99.90;;;;;;5008691;28;20493;-66
2023/09/10 08:07:12;;;;;;;6.40;5.67;;;22.90;99.90;;;;;;5011004;28;20461;-66
2023/09/10 08:09:39;;;;;;;7.63;5.60;;;23.10;99.90;;;;;;5011230;28;20480;-67
2023/09/10 08:12:06;;;;;;;6.50;5.90;;;23.30;99.90;;;;;;5010835;28;20891;-66
2023/09/10 08:14:35;;;;;;;7.83;5.77;;;23.50;99.90;;;;;;4999771;28;20860;-66
2023/09/10 08:17:02;;;;;;;5.30;4.80;;;23.60;99.90;;;;;;5001539;28;20516;-66
2023/09/10 08:19:29;;;;;;;6.47;5.23;;;23.70;99.90;;;;;;4999562;28;20466;-67
2023/09/10 08:21:55;;;;;;;6.13;5.60;;;23.90;99.90;;;;;;5003060;28;20477;-67
2023/09/10 08:24:24;;;;;;;6.23;5.63;;;24.00;99.90;;;;;;5007824;28;20917;-68
2023/09/10 08:26:51;;;;;;;5.80;5.20;;;24.20;99.90;;;;;;5007505;28;20469;-67
2023/09/10 08:29:18;;;;;;;5.63;5.00;;;24.30;99.90;;;;;;5005174;28;20472;-67
2023/09/10 08:31:45;;;;;;;6.13;5.53;;;24.40;99.90;;;;;;5001578;28;20465;-66
2023/09/10 08:34:12;;;;;;;5.60;5.07;;;24.60;99.90;;;;;;5003207;28;20482;-67
2023/09/10 08:36:38;;;;;;;5.60;5.10;;;24.70;99.90;;;;;;5007678;28;20461;-66
2023/09/10 08:39:05;;;;;;;4.57;4.20;;;24.90;99.90;;;;;;5005906;28;20474;-69
2023/09/10 08:41:40;;;;;;;5.53;5.03;;;25.00;99.90;;;;;;5007290;28;20552;-66
2023/09/10 08:44:11;;;;;;;6.10;4.33;;;25.10;99.90;;;;;;5000029;28;20516;-67
2023/09/10 08:46:39;;;;;;;5.80;4.07;;;25.20;99.90;;;;;;5008713;28;20488;-67
2023/09/10 08:49:09;;;;;;;6.13;4.80;;;25.30;99.90;;;;;;5004555;28;20475;-67
2023/09/10 08:51:36;;;;;;;6.80;4.23;;;25.40;99.90;;;;;;5008284;28;20457;-67
2023/09/10 08:54:03;;;;;;;5.17;4.60;;;25.60;99.90;;;;;;5003478;28;20477;-66
2023/09/10 08:56:30;;;;;;;4.87;4.33;;;25.60;99.90;;;;;;5008895;28;20465;-66
2023/09/10 08:59:03;;;;;;;5.70;5.17;;;25.70;99.90;;;;;;5004948;28;20461;-67
2023/09/10 09:01:30;;;;;;;5.67;4.60;;;25.80;99.90;;;;;;5010790;28;20465;-66
2023/09/10 09:03:56;;;;;;;5.60;4.40;;;25.90;99.90;;;;;;5010313;28;20497;-66
2023/09/10 09:06:28;;;;;;;5.20;4.70;;;26.00;99.90;;;;;;5014039;28;20465;-67
2023/09/10 09:09:05;;;;;;;6.30;5.07;;;26.30;99.90;;;;;;5009270;28;20468;-66
2023/09/10 09:11:35;;;;;;;4.90;4.40;;;26.40;99.90;;;;;;5009042;28;20476;-66
2023/09/10 09:14:08;;;;;;;5.87;5.27;;;26.50;99.90;;;;;;5003022;28;20484;-66
2023/09/10 09:16:35;;;;;;;5.83;5.30;;;26.60;99.90;;;;;;5011482;28;20487;-66
2023/09/10 09:19:10;;;;;;;5.90;5.30;;;26.70;99.90;;;;;;5004525;28;20457;-66
2023/09/10 09:21:39;;;;;;;4.93;4.43;;;26.80;99.90;;;;;;5011685;28;20464;-67
2023/09/10 09:24:08;;;;;;;6.00;5.33;;;26.90;99.90;;;;;;5004213;28;20505;-66
2023/09/10 09:26:39;;;;;;;7.00;5.10;;;27.10;99.90;;;;;;5012581;28;20469;-67
2023/09/10 09:29:08;;;;;;;5.47;5.00;;;27.20;99.90;;;;;;5010043;28;20469;-67
2023/09/10 09:31:34;;;;;;;5.20;4.70;;;27.20;99.90;;;;;;5013103;28;20465;-67
2023/09/10 09:34:01;;;;;;;7.10;5.50;;;27.20;99.90;;;;;;5010081;28;20485;-67
2023/09/10 09:36:29;;;;;;;5.27;4.80;;;27.30;99.90;;;;;;5012587;28;20465;-67
2023/09/10 09:38:57;;;;;;;6.20;5.60;;;27.40;99.90;;;;;;5009412;28;20467;-67
2023/09/10 09:41:23;;;;;;;5.13;4.73;;;27.50;99.90;;;;;;5012604;28;20559;-66
2023/09/10 09:43:50;;;;;;;6.07;5.57;;;27.60;99.90;;;;;;5009643;28;20500;-67
2023/09/10 09:46:18;;;;;;;5.70;5.20;;;27.80;99.90;;;;;;5013130;28;20830;-66
2023/09/10 09:48:46;;;;;;;5.60;5.10;;;27.90;99.90;;;;;;5011697;28;20477;-66
2023/09/10 09:51:16;;;;;;;5.60;5.10;;;28.00;99.90;;;;;;5013310;28;20494;-67
2023/09/10 09:53:44;;;;;;;5.90;5.40;;;28.10;99.90;;;;;;5011310;28;20509;-67
2023/09/10 09:56:11;;;;;;;6.30;5.70;;;28.20;99.90;;;;;;5013414;28;20568;-67
2023/09/10 09:58:38;;;;;;;6.90;6.20;;;28.30;99.90;;;;;;5012039;28;20516;-67
2023/09/10 10:01:04;;;;;;;6.50;5.70;;;28.30;99.90;;;;;;5012596;28;20497;-67
2023/09/10 10:03:33;;;;;;;5.50;5.00;;;28.40;99.90;;;;;;5011386;28;20493;-67
2023/09/10 10:06:02;;;;;;;6.53;5.33;;;28.50;99.90;;;;;;5004685;28;20461;-67
2023/09/10 10:08:30;;;;;;;7.03;5.67;;;28.50;99.90;;;;;;5013141;28;20472;-67
2023/09/10 10:10:57;;;;;;;6.17;5.13;;;28.50;99.90;;;;;;5012990;28;20511;-67
2023/09/10 10:13:25;;;;;;;5.63;5.13;;;28.50;99.90;;;;;;5011287;28;20859;-65
2023/09/10 10:15:53;;;;;;;5.67;5.07;;;28.50;99.90;;;;;;5011615;28;20458;-65
2023/09/10 10:18:21;;;;;;;5.30;4.80;;;28.60;99.90;;;;;;5013160;28;20457;-65
2023/09/10 10:20:50;;;;;;;6.40;5.83;;;28.80;99.90;;;;;;5011780;28;20465;-67
2023/09/10 10:23:18;;;;;;;5.20;4.80;;;28.90;99.90;;;;;;5012158;28;20490;-67
2023/09/10 10:25:46;;;;;;;6.10;5.50;;;29.00;99.90;;;;;;5008573;28;20466;-67
2023/09/10 10:28:14;;;;;;;5.90;5.30;;;29.10;99.90;;;;;;5013328;28;20473;-67
2023/09/10 10:30:51;;;;;;;6.50;5.50;;;29.20;99.90;;;;;;5011967;28;21015;-66
2023/09/10 10:33:21;;;;;;;9.30;4.80;;;29.30;99.90;;;;;;5012241;28;20480;-67
2023/09/10 10:36:06;;;;;;;6.10;5.53;;;29.30;99.90;;;;;;5004506;28;20488;-67
2023/09/10 10:38:36;;;;;;;6.10;5.50;;;29.40;99.90;;;;;;5011695;28;20465;-66
2023/09/10 10:41:07;;;;;;;5.80;5.23;;;29.40;99.90;;;;;;5004472;28;20469;-67
2023/09/10 10:43:41;;;;;;;6.43;5.20;;;29.50;99.90;;;;;;5011395;28;20473;-66
2023/09/10 10:46:09;;;;;;;5.60;5.10;;;29.60;99.90;;;;;;5012330;28;20465;-67
2023/09/10 10:48:40;;;;;;;5.70;4.90;;;29.60;99.90;;;;;;5011628;28;20473;-67
2023/09/10 10:51:11;;;;;;;6.33;5.83;;;29.70;99.90;;;;;;5004081;28;20551;-66
2023/09/10 10:53:39;;;;;;;5.60;5.10;;;29.80;99.90;;;;;;5011502;28;20484;-67
2023/09/10 10:56:06;;;;;;;5.80;5.20;;;29.90;99.90;;;;;;5000505;28;20516;-67
2023/09/10 10:58:34;;;;;;;5.00;4.60;;;29.90;99.90;;;;;;5008799;28;20457;-66
2023/09/10 11:01:02;;;;;;;6.43;4.33;;;30.00;99.90;;;;;;4996081;28;20549;-66
2023/09/10 11:03:32;;;;;;;5.47;4.97;;;30.10;99.90;;;;;;5011023;28;20531;-66
2023/09/10 11:06:05;;;;;;;4.93;4.47;;;30.20;99.90;;;;;;5003430;28;20462;-66
2023/09/10 11:08:38;;;;;;;9.43;5.00;;;30.30;99.90;;;;;;5004345;28;20468;-66
2023/09/10 11:11:09;;;;;;;4.87;4.43;;;30.40;99.90;;;;;;5004093;28;20467;-66
2023/09/10 11:14:00;;;;;;;6.37;5.60;;;30.40;99.90;;;;;;5011165;28;20485;-66
2023/09/10 11:16:30;;;;;;;5.10;4.50;;;30.40;99.90;;;;;;4997432;28;20526;-66
2023/09/10 11:18:57;;;;;;;6.33;5.73;;;30.40;99.90;;;;;;5008102;28;20485;-66
2023/09/10 11:21:50;;;;;;;6.00;5.50;;;30.40;99.90;;;;;;5007017;28;20469;-66
2023/09/10 11:24:28;;;;;;;5.57;5.07;;;30.40;99.90;;;;;;5007950;28;21202;-66
2023/09/10 11:27:21;;;;;;;5.17;4.77;;;30.50;99.90;;;;;;5010322;28;20547;-67
2023/09/10 11:30:11;;;;;;;5.73;5.23;;;30.60;99.90;;;;;;5003051;28;20843;-66
2023/09/10 11:32:38;;;;;;;5.73;5.17;;;30.70;99.90;;;;;;5000678;28;20958;-66
2023/09/10 11:35:26;;;;;;;5.73;5.10;;;30.70;99.90;;;;;;5003067;28;20501;-66
2023/09/10 11:37:55;;;;;;;5.67;5.10;;;30.80;99.90;;;;;;5010606;28;20464;-66
2023/09/10 11:40:25;;;;;;;5.77;5.20;;;30.80;99.90;;;;;;4998203;28;20866;-66
2023/09/10 11:42:52;;;;;;;5.70;5.20;;;30.90;99.90;;;;;;4993045;28;20546;-66
2023/09/10 11:45:20;;;;;;;5.53;5.03;;;31.00;99.90;;;;;;4998664;28;20998;-66
2023/09/10 11:47:48;;;;;;;5.10;4.70;;;31.00;99.90;;;;;;5006396;28;20552;-66
2023/09/10 11:50:21;;;;;;;5.17;4.67;;;31.20;99.90;;;;;;4997271;28;20462;-67
2023/09/10 11:52:49;;;;;;;6.13;5.60;;;31.30;99.90;;;;;;4999465;28;20470;-66
2023/09/10 11:55:16;;;;;;;5.87;5.33;;;31.30;99.90;;;;;;5000244;28;20482;-67
2023/09/10 11:57:46;;;;;;;5.43;4.87;;;31.40;99.90;;;;;;5002020;28;20468;-66
2023/09/10 12:00:16;;;;;;;5.73;5.23;;;31.40;99.90;;;;;;4998875;28;20462;-66
2023/09/10 12:02:43;;;;;;;5.97;5.37;;;31.40;99.90;;;;;;5005109;28;21171;-66
2023/09/10 12:05:10;;;;;;;5.80;5.30;;;31.30;99.90;;;;;;4999094;28;20489;-67
2023/09/10 12:07:37;;;;;;;6.07;5.47;;;31.30;99.90;;;;;;4996543;28;20556;-66
2023/09/10 12:10:04;;;;;;;5.43;4.97;;;31.30;99.90;;;;;;5002695;28;20465;-66
2023/09/10 12:12:33;;;;;;;5.70;5.20;;;31.20;99.90;;;;;;5001775;28;20458;-67
2023/09/10 12:15:02;;;;;;;5.80;5.30;;;31.20;99.90;;;;;;4996325;28;20484;-66
2023/09/10 12:17:29;;;;;;;7.10;5.30;;;31.30;99.90;;;;;;5008020;28;20477;-67
2023/09/10 12:19:56;;;;;;;12.93;5.50;;;31.30;99.90;;;;;;5007847;28;20469;-67
2023/09/10 12:22:23;;;;;;;5.70;5.10;;;31.10;99.90;;;;;;5004107;28;20470;-66
2023/09/10 12:24:50;;;;;;;6.33;5.03;;;30.80;99.90;;;;;;5006471;28;20540;-67
2023/09/10 12:27:16;;;;;;;5.80;5.30;;;30.50;99.90;;;;;;5003379;28;20476;-67
2023/09/10 12:29:44;;;;;;;6.40;5.80;;;30.30;99.90;;;;;;5001730;28;20458;-66
2023/09/10 12:32:12;;;;;;;5.17;4.77;;;30.20;99.90;;;;;;5003374;28;20472;-67
2023/09/10 12:34:39;;;;;;;5.50;4.83;;;30.00;99.90;;;;;;5003750;28;20505;-66
2023/09/10 12:37:06;;;;;;;5.70;5.20;;;29.80;99.90;;;;;;5003007;28;20462;-66
2023/09/10 12:39:33;;;;;;;6.10;5.50;;;29.60;99.90;;;;;;5002727;28;20465;-66
2023/09/10 12:42:01;;;;;;;7.80;5.40;;;29.30;99.90;;;;;;4999080;28;20873;-67
2023/09/10 12:44:28;;;;;;;5.97;5.47;;;29.20;99.90;;;;;;5013850;28;20568;-66
2023/09/10 12:46:55;;;;;;;5.70;5.13;;;29.10;99.90;;;;;;5005060;28;20544;-67
2023/09/10 12:49:23;;;;;;;5.73;5.23;;;29.00;99.90;;;;;;5004637;28;20470;-66
2023/09/10 12:51:50;;;;;;;6.50;5.30;;;28.90;99.90;;;;;;5005373;28;20913;-66
2023/09/10 12:54:18;;;;;;;8.87;5.40;;;28.80;99.90;;;;;;5003677;28;20478;-67
2023/09/10 12:56:49;;;;;;;6.20;5.57;;;28.80;99.90;;;;;;5006338;28;20493;-66
2023/09/10 12:59:16;;;;;;;5.77;5.03;;;28.70;99.90;;;;;;5014612;28;20552;-66
2023/09/10 13:01:42;;;;;;;6.33;5.27;;;28.60;99.90;;;;;;5007645;28;20462;-66
2023/09/10 13:04:09;;;;;;;5.83;5.33;;;28.40;99.90;;;;;;5014048;28;20496;-67
2023/09/10 13:06:37;;;;;;;6.07;5.47;;;28.30;99.90;;;;;;5014681;28;20468;-67
2023/09/10 13:09:05;;;;;;;5.80;5.23;;;28.50;99.90;;;;;;5007751;28;20469;-66
2023/09/10 13:11:33;;;;;;;5.70;5.20;;;28.70;99.90;;;;;;5007669;28;20896;-66
2023/09/10 13:14:01;;;;;;;5.57;5.03;;;29.10;99.90;;;;;;5012383;28;20484;-67
2023/09/10 13:16:27;;;;;;;6.13;5.37;;;29.40;99.90;;;;;;5014381;28;20453;-67
2023/09/10 13:18:54;;;;;;;6.33;5.73;;;29.60;99.90;;;;;;5013949;28;20469;-66
2023/09/10 13:21:21;;;;;;;6.07;5.47;;;29.90;99.90;;;;;;5014162;28;20468;-67
2023/09/10 13:23:49;;;;;;;5.73;5.23;;;30.10;99.90;;;;;;5013436;28;20576;-67
2023/09/10 13:26:15;;;;;;;5.10;4.60;;;30.20;99.90;;;;;;5014089;28;20492;-66
2023/09/10 13:28:42;;;;;;;6.37;5.77;;;30.40;99.90;;;;;;5013937;28;20461;-66
2023/09/10 13:31:09;;;;;;;5.80;5.30;;;30.50;99.90;;;;;;5013673;28;20476;-67
2023/09/10 13:33:35;;;;;;;5.17;4.67;;;30.60;99.90;;;;;;5013470;28;20481;-66
2023/09/10 13:36:02;;;;;;;7.10;5.27;;;30.60;99.90;;;;;;5013823;28;20484;-67
2023/09/10 13:38:29;;;;;;;7.70;5.40;;;30.70;99.90;;;;;;5014113;28;20472;-66
2023/09/10 13:40:57;;;;;;;5.47;5.00;;;30.90;99.90;;;;;;5013490;28;20461;-67
2023/09/10 13:43:24;;;;;;;6.50;5.83;;;31.00;99.90;;;;;;5013331;28;20484;-66
2023/09/10 13:45:50;;;;;;;4.40;4.03;;;31.00;99.90;;;;;;5013397;28;20484;-66
2023/09/10 13:48:18;;;;;;;5.80;5.30;;;31.10;99.90;;;;;;5002638;28;20843;-66
2023/09/10 13:50:44;;;;;;;5.37;4.97;;;31.10;99.90;;;;;;5011208;28;20461;-66
2023/09/10 13:53:11;;;;;;;5.93;5.40;;;31.20;99.90;;;;;;5009373;28;20474;-66
2023/09/10 13:55:38;;;;;;;5.83;5.33;;;31.20;99.90;;;;;;5005329;28;20813;-66
2023/09/10 13:58:06;;;;;;;6.13;5.53;;;31.30;99.90;;;;;;5011115;28;20464;-66
2023/09/10 14:00:33;;;;;;;6.03;5.50;;;31.30;99.90;;;;;;5009851;28;20466;-66
2023/09/10 14:03:00;;;;;;;4.80;4.40;;;31.30;99.90;;;;;;4997971;28;20461;-66
2023/09/10 14:05:26;;;;;;;5.67;4.97;;;31.30;99.90;;;;;;5008864;28;21016;-66
2023/09/10 14:07:53;;;;;;;7.70;5.13;;;31.30;99.90;;;;;;5012502;28;20470;-66
2023/09/10 14:10:20;;;;;;;4.87;4.33;;;31.30;99.90;;;;;;5009161;28;20474;-66
2023/09/10 14:12:47;;;;;;;5.43;4.93;;;31.30;99.90;;;;;;5010928;28;20844;-66
2023/09/10 14:15:15;;;;;;;5.20;4.80;;;31.20;99.90;;;;;;5007217;28;20568;-66
2023/09/10 14:17:42;;;;;;;5.67;5.07;;;31.20;99.90;;;;;;5012702;28;20467;-66
2023/09/10 14:20:09;;;;;;;6.00;4.77;;;31.10;99.90;;;;;;5007269;28;20848;-66
2023/09/10 14:22:37;;;;;;;5.20;4.70;;;31.10;99.90;;;;;;5007182;28;20478;-66
2023/09/10 14:25:04;;;;;;;5.03;4.63;;;31.20;99.90;;;;;;5007539;28;20993;-66
2023/09/10 14:27:31;;;;;;;4.90;4.40;;;31.20;99.90;;;;;;5012911;28;20472;-66
2023/09/10 14:29:57;;;;;;;5.50;5.00;;;31.20;99.90;;;;;;5007626;28;20466;-66
2023/09/10 14:32:26;;;;;;;5.67;5.13;;;31.20;99.90;;;;;;5012230;28;20462;-66
2023/09/10 14:34:52;;;;;;;5.27;4.77;;;31.10;99.90;;;;;;5002070;28;20483;-66
2023/09/10 14:37:19;;;;;;;4.60;4.20;;;31.10;99.90;;;;;;5012044;28;20469;-66
2023/09/10 14:39:46;;;;;;;4.90;4.50;;;31.00;99.90;;;;;;5011906;28;20464;-66
2023/09/10 14:42:13;;;;;;;5.70;5.20;;;31.00;99.90;;;;;;5006667;28;20461;-66
2023/09/10 14:44:40;;;;;;;5.57;4.97;;;31.10;99.90;;;;;;5008430;28;20481;-66
2023/09/10 14:47:07;;;;;;;5.93;4.93;;;31.00;99.90;;;;;;5012468;28;20960;-66
2023/09/10 14:49:35;;;;;;;5.53;5.07;;;31.10;99.90;;;;;;5003840;28;20463;-66
2023/09/10 14:52:02;;;;;;;5.43;4.67;;;31.10;99.90;;;;;;4998853;28;20488;-66
2023/09/10 14:54:30;;;;;;;5.67;5.17;;;31.10;99.90;;;;;;5012320;28;20489;-66
2023/09/10 14:56:57;;;;;;;4.80;4.40;;;31.00;99.90;;;;;;5012593;28;20464;-66
2023/09/10 14:59:24;;;;;;;5.60;4.73;;;30.90;99.90;;;;;;5006629;28;20529;-66
2023/09/10 15:01:51;;;;;;;4.90;4.10;;;30.80;99.90;;;;;;5006943;28;20469;-66
2023/09/10 15:04:18;;;;;;;4.80;4.13;;;30.80;99.90;;;;;;5007234;28;20481;-66
2023/09/10 15:06:46;;;;;;;5.20;4.80;;;30.80;99.90;;;;;;5007386;28;20494;-66
2023/09/10 15:09:13;;;;;;;4.67;4.17;;;30.70;99.90;;;;;;5011975;28;20484;-66
2023/09/10 15:11:40;;;;;;;5.17;4.77;;;30.60;99.90;;;;;;5006829;28;20476;-66
2023/09/10 15:14:07;;;;;;;4.80;4.40;;;30.60;99.90;;;;;;5011811;28;20497;-66
2023/09/10 15:16:33;;;;;;;5.80;4.60;;;30.60;99.90;;;;;;5007310;28;20525;-66
2023/09/10 15:19:00;;;;;;;5.33;4.83;;;30.50;99.90;;;;;;5003780;28;20464;-66
2023/09/10 15:21:27;;;;;;;4.77;4.27;;;30.50;99.90;;;;;;5011511;28;20468;-66
2023/09/10 15:23:55;;;;;;;5.00;4.50;;;30.50;99.90;;;;;;5011623;28;22115;-66
2023/09/10 15:26:22;;;;;;;5.63;4.90;;;30.50;99.90;;;;;;5011363;28;20496;-66
2023/09/10 15:28:49;;;;;;;5.33;4.87;;;30.40;99.90;;;;;;5011890;28;20469;-66
2023/09/10 15:31:16;;;;;;;6.00;5.50;;;30.40;99.90;;;;;;5011386;28;20847;-67
2023/09/10 15:33:43;;;;;;;5.47;4.97;;;30.30;99.90;;;;;;5006656;28;20556;-66
2023/09/10 15:36:09;;;;;;;4.80;4.40;;;30.20;99.90;;;;;;5010178;28;20461;-67
2023/09/10 15:38:36;;;;;;;5.60;5.10;;;30.10;99.90;;;;;;5008387;28;20469;-66
2023/09/10 15:41:06;;;;;;;5.10;4.60;;;30.10;99.90;;;;;;5001530;28;20472;-66
2023/09/10 15:43:33;;;;;;;5.20;4.70;;;30.10;99.90;;;;;;5006193;28;20485;-66
2023/09/10 15:46:00;;;;;;;5.50;5.00;;;30.00;99.90;;;;;;5000020;28;20805;-66
2023/09/10 15:48:26;;;;;;;4.73;4.33;;;30.00;99.90;;;;;;5002903;28;20478;-66
2023/09/10 15:50:53;;;;;;;5.40;4.90;;;29.90;99.90;;;;;;5003060;28;20469;-66
2023/09/10 15:53:20;;;;;;;5.10;4.60;;;29.90;99.90;;;;;;5003664;28;20488;-66
2023/09/10 15:55:47;;;;;;;4.90;4.43;;;29.90;99.90;;;;;;5006733;28;20469;-68
2023/09/10 15:58:15;;;;;;;5.43;4.93;;;29.80;99.90;;;;;;5010970;28;20849;-67
2023/09/10 16:00:41;;;;;;;5.10;4.70;;;29.70;99.90;;;;;;5008635;28;20465;-67
2023/09/10 16:03:08;;;;;;;4.80;4.40;;;29.60;99.90;;;;;;5005643;28;20461;-70
2023/09/10 16:05:35;;;;;;;5.20;4.70;;;29.60;99.90;;;;;;5005568;28;20485;-68
2023/09/10 16:08:02;;;;;;;5.07;4.67;;;29.50;99.90;;;;;;5007224;28;20778;-68
2023/09/10 16:10:28;;;;;;;4.93;4.50;;;29.50;99.90;;;;;;5008417;28;20469;-68
2023/09/10 16:12:55;;;;;;;5.13;4.73;;;29.40;99.90;;;;;;5010095;28;20461;-68
2023/09/10 16:15:23;;;;;;;6.40;4.90;;;29.30;99.90;;;;;;5010493;28;20478;-67
2023/09/10 16:17:50;;;;;;;4.90;4.50;;;29.30;99.90;;;;;;5005916;28;20529;-67
2023/09/10 16:20:17;;;;;;;5.70;4.60;;;29.20;99.90;;;;;;5010664;28;20850;-67
2023/09/10 16:22:43;;;;;;;4.93;4.53;;;29.10;99.90;;;;;;5008895;28;20472;-69
2023/09/10 16:25:10;;;;;;;4.37;3.97;;;29.00;99.90;;;;;;5009813;28;20482;-68